Time;durP1;ratioP1;P1;durP2;ratioP2;P2;SDS_P1;SDS_P2;PMS_P1;PMS_P2;Temp;Humidity;BMP_temperature;BMP_pressure;BME280_temperature;BME280_humidity;BME280_pressure;Samples;Min_cycle;Max_cycle;Signal;HPM_P1;HPM_P2
2021/06/30 00:00:26;;;;;;;0.45;0.45;;;16.00;88.30;;;;;;5056090;28;20100;-74
2021/06/30 00:02:52;;;;;;;0.38;0.30;;;15.90;88.40;;;;;;5056125;28;20032;-75
2021/06/30 00:05:18;;;;;;;0.50;0.50;;;15.90;88.40;;;;;;5055839;28;20021;-75
2021/06/30 00:07:43;;;;;;;0.57;0.50;;;15.90;88.30;;;;;;5055549;28;20063;-76
2021/06/30 00:10:10;;;;;;;0.30;0.30;;;15.90;88.40;;;;;;5055964;28;20533;-74
2021/06/30 00:12:36;;;;;;;0.40;0.40;;;15.90;88.50;;;;;;5055760;28;20033;-76
2021/06/30 00:15:08;;;;;;;0.30;0.30;;;15.80;88.50;;;;;;5055887;28;20021;-76
2021/06/30 00:17:33;;;;;;;0.52;0.52;;;15.80;89.30;;;;;;5055831;28;20049;-74
2021/06/30 00:19:58;;;;;;;0.50;0.50;;;15.70;88.90;;;;;;5055693;28;20052;-74
2021/06/30 00:22:24;;;;;;;0.30;0.30;;;15.70;89.00;;;;;;5055139;28;20029;-75
2021/06/30 00:24:49;;;;;;;0.30;0.30;;;15.60;89.10;;;;;;5055662;28;20470;-75
2021/06/30 00:27:15;;;;;;;0.30;0.30;;;15.70;89.20;;;;;;5055548;28;20017;-76
2021/06/30 00:29:40;;;;;;;2.00;0.50;;;15.60;89.00;;;;;;5055540;28;20021;-75
2021/06/30 00:32:06;;;;;;;0.38;0.38;;;15.60;89.10;;;;;;5055293;28;20029;-76
2021/06/30 00:34:32;;;;;;;0.35;0.35;;;15.60;89.10;;;;;;5055629;28;20031;-75
2021/06/30 00:36:57;;;;;;;0.35;0.35;;;15.70;89.10;;;;;;5054973;28;20029;-74
2021/06/30 00:39:23;;;;;;;0.47;0.40;;;15.70;88.90;;;;;;5055357;28;20021;-75
2021/06/30 00:41:49;;;;;;;0.30;0.30;;;15.80;88.80;;;;;;5053757;28;20045;-75
2021/06/30 00:44:15;;;;;;;0.30;0.30;;;15.80;88.70;;;;;;5055213;28;20078;-74
2021/06/30 00:46:40;;;;;;;0.38;0.38;;;15.70;88.70;;;;;;5055218;28;20024;-75
2021/06/30 00:49:08;;;;;;;0.68;0.68;;;15.70;89.10;;;;;;5055072;28;20031;-74
2021/06/30 00:51:34;;;;;;;0.93;0.85;;;15.60;89.10;;;;;;5054672;28;20025;-76
2021/06/30 00:53:59;;;;;;;0.82;0.70;;;15.60;89.40;;;;;;5055090;28;20371;-75
2021/06/30 00:56:27;;;;;;;0.50;0.50;;;15.50;89.60;;;;;;5055010;28;20362;-75
2021/06/30 00:58:54;;;;;;;0.60;0.60;;;15.50;89.60;;;;;;5054996;28;20032;-75
2021/06/30 01:01:21;;;;;;;0.40;0.40;;;15.50;89.40;;;;;;5055025;28;20106;-75
2021/06/30 01:03:48;;;;;;;0.30;0.30;;;15.50;89.30;;;;;;5054811;28;20029;-76
2021/06/30 01:06:14;;;;;;;0.20;0.20;;;15.50;89.30;;;;;;5054349;28;20490;-76
2021/06/30 01:08:40;;;;;;;0.32;0.32;;;15.60;89.30;;;;;;5054918;28;20017;-75
2021/06/30 01:11:07;;;;;;;0.32;0.32;;;15.60;89.20;;;;;;5054711;28;20535;-76
2021/06/30 01:13:32;;;;;;;0.50;0.50;;;15.50;89.20;;;;;;5054581;28;20061;-76
2021/06/30 01:15:58;;;;;;;0.60;0.50;;;15.50;89.40;;;;;;5054723;28;20079;-75
2021/06/30 01:18:27;;;;;;;0.43;0.40;;;15.50;89.30;;;;;;5054546;28;20117;-75
2021/06/30 01:20:53;;;;;;;;;;;15.50;89.40;;;;;;5054465;28;20538;-76
2021/06/30 01:23:19;;;;;;;0.68;0.50;;;15.40;89.10;;;;;;5054589;28;20242;-75
2021/06/30 01:25:46;;;;;;;0.32;0.32;;;15.50;89.50;;;;;;5054370;28;20028;-75
2021/06/30 01:28:12;;;;;;;0.38;0.38;;;15.40;89.40;;;;;;5054417;28;20025;-74
2021/06/30 01:30:39;;;;;;;0.50;0.40;;;15.50;89.40;;;;;;5054278;28;20104;-75
2021/06/30 01:33:05;;;;;;;0.30;0.30;;;15.50;89.30;;;;;;5052952;28;20079;-75
2021/06/30 01:35:30;;;;;;;0.45;0.45;;;15.40;89.40;;;;;;5053877;28;20453;-75
2021/06/30 01:37:56;;;;;;;0.43;0.38;;;15.50;89.40;;;;;;5054231;28;20032;-76
2021/06/30 01:40:23;;;;;;;0.20;0.20;;;15.50;89.20;;;;;;5054000;28;20041;-75
2021/06/30 01:42:51;;;;;;;0.30;0.30;;;15.50;89.30;;;;;;5054092;28;20048;-75
2021/06/30 01:45:17;;;;;;;0.38;0.38;;;15.50;89.20;;;;;;5054085;28;20186;-76
2021/06/30 01:47:43;;;;;;;0.40;0.40;;;15.60;89.00;;;;;;5054045;28;20465;-76
2021/06/30 01:50:09;;;;;;;0.40;0.40;;;15.60;89.10;;;;;;5053766;28;20032;-75
2021/06/30 01:52:36;;;;;;;0.47;0.40;;;15.60;89.10;;;;;;5054029;28;20029;-76
2021/06/30 01:55:04;;;;;;;0.47;0.45;;;15.50;89.10;;;;;;5054026;28;20035;-76
2021/06/30 01:57:29;;;;;;;0.20;0.20;;;15.60;89.20;;;;;;5053921;28;20017;-76
2021/06/30 01:59:55;;;;;;;0.20;0.20;;;15.60;89.20;;;;;;5053727;28;20493;-75
2021/06/30 02:02:23;;;;;;;0.30;0.30;;;15.60;89.10;;;;;;5053291;28;20143;-75
2021/06/30 02:05:05;;;;;;;0.20;0.20;;;15.60;89.20;;;;;;5053702;28;20048;-75
2021/06/30 02:07:31;;;;;;;0.20;0.20;;;15.50;89.50;;;;;;5053663;28;20021;-76
2021/06/30 02:09:58;;;;;;;0.40;0.40;;;15.40;89.60;;;;;;5052358;28;20385;-74
2021/06/30 02:12:23;;;;;;;0.30;0.30;;;15.40;89.70;;;;;;5053450;28;20071;-74
2021/06/30 02:14:49;;;;;;;0.30;0.30;;;15.40;89.80;;;;;;5053552;28;20028;-74
2021/06/30 02:17:18;;;;;;;0.52;0.52;;;15.30;89.80;;;;;;5053096;28;20025;-75
2021/06/30 02:19:49;;;;;;;0.40;0.40;;;15.30;89.90;;;;;;5053337;28;20071;-75
2021/06/30 02:22:16;;;;;;;0.30;0.30;;;15.30;89.80;;;;;;5053476;28;20029;-74
2021/06/30 02:24:42;;;;;;;0.43;0.43;;;15.40;89.90;;;;;;5053410;28;20033;-73
2021/06/30 02:27:07;;;;;;;0.60;0.60;;;15.30;89.80;;;;;;5053414;28;20021;-75
2021/06/30 02:29:33;;;;;;;0.60;0.60;;;15.20;90.00;;;;;;5053448;28;20025;-74
2021/06/30 02:31:58;;;;;;;0.60;0.60;;;15.20;90.10;;;;;;5052865;28;20458;-75
2021/06/30 02:34:24;;;;;;;0.75;0.75;;;15.10;90.10;;;;;;5053117;28;20040;-74
2021/06/30 02:36:49;;;;;;;0.60;0.60;;;15.00;90.40;;;;;;5053197;28;20080;-75
2021/06/30 02:39:15;;;;;;;0.30;0.30;;;15.00;90.20;;;;;;5053099;28;20040;-74
2021/06/30 02:41:40;;;;;;;0.20;0.20;;;15.00;90.20;;;;;;5051567;28;20041;-74
2021/06/30 02:44:06;;;;;;;0.20;0.20;;;15.10;90.10;;;;;;5053146;28;20385;-76
2021/06/30 02:46:31;;;;;;;0.40;0.40;;;15.10;90.00;;;;;;5052735;28;20028;-76
2021/06/30 02:48:57;;;;;;;0.20;0.20;;;15.10;90.00;;;;;;5053115;28;20053;-73
2021/06/30 02:51:22;;;;;;;0.30;0.30;;;15.20;90.00;;;;;;5053137;28;20114;-75
2021/06/30 02:53:48;;;;;;;0.17;0.17;;;15.20;90.00;;;;;;5052929;28;20508;-75
2021/06/30 02:56:13;;;;;;;0.22;0.22;;;15.10;90.00;;;;;;5052966;28;20029;-75
2021/06/30 02:58:39;;;;;;;0.32;0.32;;;15.10;90.00;;;;;;5053025;28;20104;-74
2021/06/30 03:01:04;;;;;;;0.40;0.40;;;15.00;90.00;;;;;;5052516;28;20016;-75
2021/06/30 03:03:30;;;;;;;0.40;0.40;;;15.00;90.10;;;;;;5052881;28;20043;-74
2021/06/30 03:05:56;;;;;;;0.40;0.40;;;15.00;90.10;;;;;;5055368;28;20021;-76
2021/06/30 03:08:21;;;;;;;0.90;0.70;;;14.90;90.10;;;;;;5055742;28;20367;-74
2021/06/30 03:10:47;;;;;;;0.50;0.50;;;15.00;90.20;;;;;;5057091;28;20029;-75
2021/06/30 03:13:12;;;;;;;0.50;0.50;;;14.90;90.20;;;;;;5056921;28;20083;-76
2021/06/30 03:15:38;;;;;;;1.30;0.68;;;14.90;90.30;;;;;;5055171;28;20480;-75
2021/06/30 03:18:04;;;;;;;0.30;0.30;;;14.90;90.30;;;;;;5055611;28;20049;-74
2021/06/30 03:20:30;;;;;;;0.50;0.50;;;14.90;90.30;;;;;;5056947;28;20017;-75
2021/06/30 03:22:55;;;;;;;0.40;0.40;;;15.00;90.20;;;;;;5056914;28;20386;-74
2021/06/30 03:25:21;;;;;;;0.30;0.30;;;15.00;90.20;;;;;;5056717;28;20053;-76
2021/06/30 03:27:46;;;;;;;0.47;0.47;;;15.00;90.20;;;;;;5055396;28;20078;-76
2021/06/30 03:30:13;;;;;;;0.28;0.28;;;15.00;90.20;;;;;;5056315;28;20021;-76
2021/06/30 03:32:39;;;;;;;0.52;0.43;;;14.90;90.30;;;;;;5056672;28;20047;-73
2021/06/30 03:35:06;;;;;;;0.40;0.40;;;14.90;90.30;;;;;;5055191;28;20025;-75
2021/06/30 03:37:31;;;;;;;0.32;0.32;;;15.00;90.30;;;;;;5056660;28;20078;-75
2021/06/30 03:39:57;;;;;;;0.25;0.25;;;14.90;90.30;;;;;;5056476;28;20017;-75
2021/06/30 03:42:22;;;;;;;0.80;0.30;;;14.90;90.30;;;;;;5056442;28;20385;-74
2021/06/30 03:44:48;;;;;;;0.82;0.65;;;14.90;90.40;;;;;;5055980;28;20083;-75
2021/06/30 03:47:14;;;;;;;0.70;0.70;;;14.80;90.40;;;;;;5056544;28;20460;-75
2021/06/30 03:49:39;;;;;;;0.60;0.60;;;14.80;90.50;;;;;;5056489;28;20029;-74
2021/06/30 03:52:05;;;;;;;0.50;0.50;;;14.80;90.60;;;;;;5056487;28;20097;-75
2021/06/30 03:54:31;;;;;;;0.50;0.50;;;14.80;90.50;;;;;;5056231;28;20109;-76
2021/06/30 03:56:56;;;;;;;0.52;0.52;;;14.90;90.50;;;;;;5056443;28;20037;-75
2021/06/30 03:59:22;;;;;;;0.43;0.40;;;14.80;90.40;;;;;;5055778;28;20052;-74
2021/06/30 04:01:50;;;;;;;0.40;0.40;;;14.80;90.50;;;;;;5056150;28;20414;-74
2021/06/30 04:04:17;;;;;;;0.60;0.57;;;14.80;90.60;;;;;;5055877;28;20104;-75
2021/06/30 04:06:43;;;;;;;0.47;0.47;;;14.70;90.60;;;;;;5056091;28;20367;-76
2021/06/30 04:09:08;;;;;;;0.70;0.70;;;14.70;90.70;;;;;;5056104;28;20032;-75
2021/06/30 04:11:34;;;;;;;0.55;0.55;;;14.70;90.60;;;;;;5056044;28;20025;-74
2021/06/30 04:14:00;;;;;;;0.70;0.70;;;14.80;90.60;;;;;;5055330;28;20059;-75
2021/06/30 04:16:26;;;;;;;1.33;1.10;;;14.70;90.70;;;;;;5055792;28;20017;-76
2021/06/30 04:18:52;;;;;;;1.38;0.98;;;14.70;90.80;;;;;;5055546;28;20082;-76
2021/06/30 04:21:17;;;;;;;0.70;0.70;;;14.60;91.10;;;;;;5055713;28;20075;-75
2021/06/30 04:23:43;;;;;;;0.52;0.50;;;14.70;90.80;;;;;;5055884;28;20100;-75
2021/06/30 04:26:09;;;;;;;0.50;0.50;;;14.60;90.80;;;;;;5055589;28;20025;-74
2021/06/30 04:28:34;;;;;;;0.30;0.30;;;14.70;90.80;;;;;;5055033;28;20033;-74
2021/06/30 04:31:00;;;;;;;0.70;0.70;;;14.80;90.70;;;;;;5054357;28;20381;-74
2021/06/30 04:33:25;;;;;;;0.60;0.60;;;14.80;90.70;;;;;;5055313;28;20130;-75
2021/06/30 04:35:51;;;;;;;1.25;0.60;;;14.90;90.70;;;;;;5055533;28;20021;-74
2021/06/30 04:38:18;;;;;;;0.45;0.45;;;14.80;90.60;;;;;;5055381;28;20474;-74
2021/06/30 04:40:44;;;;;;;0.63;0.63;;;14.80;90.70;;;;;;5055196;28;20037;-75
2021/06/30 04:43:09;;;;;;;0.73;0.73;;;14.70;90.70;;;;;;5054866;28;20104;-77
2021/06/30 04:45:35;;;;;;;0.88;0.68;;;14.70;90.80;;;;;;5055333;28;20052;-75
2021/06/30 04:48:00;;;;;;;0.70;0.68;;;14.70;90.80;;;;;;5055179;28;20033;-74
2021/06/30 04:50:26;;;;;;;0.50;0.50;;;14.80;90.80;;;;;;5055124;28;20485;-75
2021/06/30 04:52:52;;;;;;;0.85;0.80;;;14.80;90.90;;;;;;5055045;28;20493;-75
2021/06/30 04:55:17;;;;;;;0.70;0.70;;;14.80;90.90;;;;;;5055300;28;20025;-76
2021/06/30 04:57:43;;;;;;;1.20;1.10;;;14.80;90.90;;;;;;5054411;28;20086;-75
2021/06/30 05:00:10;;;;;;;0.80;0.80;;;14.70;90.90;;;;;;5055022;28;20382;-75
2021/06/30 05:02:35;;;;;;;1.45;1.20;;;14.70;91.00;;;;;;5054806;28;20032;-74
2021/06/30 05:05:02;;;;;;;1.42;1.33;;;14.70;91.10;;;;;;5054828;28;20017;-73
2021/06/30 05:07:28;;;;;;;1.95;1.35;;;14.60;91.30;;;;;;5054769;28;20055;-74
2021/06/30 05:09:53;;;;;;;1.10;1.00;;;14.60;91.30;;;;;;5054971;28;20021;-75
2021/06/30 05:12:19;;;;;;;1.40;1.02;;;14.60;91.40;;;;;;5054066;28;20096;-74
2021/06/30 05:14:44;;;;;;;1.55;1.08;;;14.70;91.40;;;;;;5054717;28;20150;-75
2021/06/30 05:17:10;;;;;;;0.80;0.75;;;14.70;91.40;;;;;;5054610;28;20021;-74
2021/06/30 05:19:36;;;;;;;0.98;0.80;;;14.70;91.40;;;;;;5054525;28;20024;-75
2021/06/30 05:22:03;;;;;;;0.60;0.60;;;14.70;91.50;;;;;;5054577;28;20017;-75
2021/06/30 05:24:29;;;;;;;0.88;0.88;;;14.70;91.50;;;;;;5054720;28;20021;-74
2021/06/30 05:26:54;;;;;;;1.30;1.20;;;14.70;91.60;;;;;;5052793;28;20028;-75
2021/06/30 05:29:20;;;;;;;1.98;1.00;;;14.70;91.60;;;;;;5053833;28;20017;-75
2021/06/30 05:31:46;;;;;;;1.90;1.45;;;14.70;91.70;;;;;;5054237;28;20028;-74
2021/06/30 05:34:11;;;;;;;1.55;1.45;;;14.70;91.80;;;;;;5054269;28;20045;-74
2021/06/30 05:36:37;;;;;;;1.25;1.15;;;14.60;91.90;;;;;;5054437;28;20024;-76
2021/06/30 05:39:03;;;;;;;1.42;1.10;;;14.60;92.00;;;;;;5054248;28;20470;-75
2021/06/30 05:41:29;;;;;;;1.55;1.00;;;14.60;92.10;;;;;;5053503;28;20504;-74
2021/06/30 05:43:55;;;;;;;1.30;1.20;;;14.60;92.10;;;;;;5054031;28;20028;-74
2021/06/30 05:46:20;;;;;;;0.70;0.70;;;14.70;92.10;;;;;;5054075;28;20048;-76
2021/06/30 05:48:46;;;;;;;1.38;1.00;;;14.70;92.10;;;;;;5054034;28;20100;-74
2021/06/30 05:51:12;;;;;;;1.23;1.00;;;14.70;92.20;;;;;;5054034;28;20025;-75
2021/06/30 05:53:39;;;;;;;1.67;1.13;;;14.70;92.20;;;;;;5053792;28;20116;-76
2021/06/30 05:56:06;;;;;;;1.20;1.10;;;14.70;92.30;;;;;;5053457;28;20559;-75
2021/06/30 05:58:32;;;;;;;0.77;0.77;;;14.70;92.30;;;;;;5053894;28;20032;-74
2021/06/30 06:00:57;;;;;;;0.63;0.60;;;14.70;92.40;;;;;;5053850;28;20029;-75
2021/06/30 06:03:23;;;;;;;0.95;0.82;;;14.70;92.40;;;;;;5053779;28;20033;-74
2021/06/30 06:05:48;;;;;;;1.10;1.00;;;14.80;92.40;;;;;;5052369;28;20070;-74
2021/06/30 06:08:14;;;;;;;0.90;0.88;;;14.80;92.40;;;;;;5053742;28;20072;-75
2021/06/30 06:10:39;;;;;;;1.52;1.30;;;14.80;92.70;;;;;;5053467;28;20017;-75
2021/06/30 06:13:05;;;;;;;1.35;1.20;;;14.80;92.40;;;;;;5053532;28;20044;-75
2021/06/30 06:15:31;;;;;;;1.02;0.93;;;14.80;92.50;;;;;;5053574;28;20021;-75
2021/06/30 06:17:56;;;;;;;1.10;1.00;;;14.70;92.60;;;;;;5053521;28;20059;-74
2021/06/30 06:20:22;;;;;;;1.40;1.17;;;14.80;92.60;;;;;;5053442;28;20013;-74
2021/06/30 06:22:47;;;;;;;1.00;1.00;;;14.90;92.60;;;;;;5053554;28;20021;-76
2021/06/30 06:25:13;;;;;;;1.38;1.20;;;14.80;92.60;;;;;;5052955;28;20368;-75
2021/06/30 06:27:39;;;;;;;1.45;1.13;;;14.70;92.80;;;;;;5051923;28;20462;-72
2021/06/30 06:30:07;;;;;;;0.98;0.80;;;14.70;92.80;;;;;;5053316;28;20040;-74
2021/06/30 06:32:33;;;;;;;1.15;0.98;;;14.80;92.80;;;;;;5053302;28;20071;-74
2021/06/30 06:34:59;;;;;;;0.63;0.63;;;14.90;92.70;;;;;;5053324;28;20025;-74
2021/06/30 06:37:24;;;;;;;1.05;0.95;;;14.80;92.80;;;;;;5053235;28;20021;-75
2021/06/30 06:39:50;;;;;;;2.35;1.30;;;14.90;92.80;;;;;;5051921;28;20029;-74
2021/06/30 06:42:15;;;;;;;1.85;1.30;;;14.90;92.80;;;;;;5052987;28;20127;-74
2021/06/30 06:44:42;;;;;;;1.48;1.38;;;14.80;92.80;;;;;;5068580;28;20021;-73
2021/06/30 06:47:08;;;;;;;2.05;1.55;;;14.80;92.90;;;;;;5053230;28;20024;-74
2021/06/30 06:49:33;;;;;;;1.25;1.05;;;14.80;93.00;;;;;;5053371;28;20056;-75
2021/06/30 06:52:01;;;;;;;0.80;0.80;;;14.90;92.90;;;;;;5053198;28;20060;-74
2021/06/30 06:54:26;;;;;;;0.93;0.93;;;15.00;92.80;;;;;;5052454;28;20029;-75
2021/06/30 06:56:51;;;;;;;1.02;0.90;;;15.00;92.80;;;;;;5051695;28;20071;-77
2021/06/30 06:59:17;;;;;;;1.20;1.00;;;14.90;92.90;;;;;;5053635;28;20067;-78
2021/06/30 07:01:43;;;;;;;1.15;0.80;;;14.90;92.90;;;;;;5052951;28;20017;-75
2021/06/30 07:04:08;;;;;;;0.90;0.90;;;14.90;93.00;;;;;;5052830;28;20132;-74
2021/06/30 07:06:34;;;;;;;1.20;0.90;;;14.90;93.00;;;;;;5052972;28;20025;-75
2021/06/30 07:08:59;;;;;;;1.00;0.90;;;14.90;93.00;;;;;;5052419;28;20036;-74
2021/06/30 07:11:25;;;;;;;0.50;0.50;;;15.00;93.10;;;;;;5052973;28;20021;-75
2021/06/30 07:13:51;;;;;;;1.17;0.90;;;15.00;92.90;;;;;;5053165;28;20037;-74
2021/06/30 07:16:17;;;;;;;1.27;1.00;;;15.10;92.90;;;;;;5052737;28;20108;-74
2021/06/30 07:18:42;;;;;;;1.33;1.13;;;15.10;92.90;;;;;;5052752;28;20188;-74
2021/06/30 07:21:09;;;;;;;1.67;1.25;;;15.00;93.00;;;;;;5052797;28;20079;-74
2021/06/30 07:23:35;;;;;;;1.20;1.10;;;15.00;93.10;;;;;;5052281;28;20117;-74
2021/06/30 07:26:01;;;;;;;2.00;1.35;;;15.00;93.00;;;;;;5052580;28;20458;-75
2021/06/30 07:28:26;;;;;;;2.03;1.42;;;15.00;93.10;;;;;;5052851;28;20043;-74
2021/06/30 07:30:52;;;;;;;2.63;1.70;;;15.00;93.20;;;;;;5052562;28;20048;-74
2021/06/30 07:33:18;;;;;;;2.88;2.00;;;15.00;93.20;;;;;;5052384;28;20040;-74
2021/06/30 07:35:44;;;;;;;3.20;1.90;;;15.00;93.10;;;;;;5052990;28;20029;-73
2021/06/30 07:38:09;;;;;;;2.53;1.95;;;15.00;93.10;;;;;;5052074;28;20075;-73
2021/06/30 07:40:35;;;;;;;3.40;2.28;;;14.90;93.20;;;;;;5052396;28;20049;-74
2021/06/30 07:43:02;;;;;;;2.85;1.85;;;14.90;93.30;;;;;;5052328;28;20032;-74
2021/06/30 07:45:28;;;;;;;1.88;1.65;;;15.00;93.50;;;;;;5052467;28;20029;-74
2021/06/30 07:47:53;;;;;;;2.60;2.00;;;15.00;93.20;;;;;;5052560;28;20023;-74
2021/06/30 07:50:19;;;;;;;2.40;1.80;;;15.10;93.10;;;;;;5052038;28;20478;-76
2021/06/30 07:52:48;;;;;;;1.85;1.60;;;15.10;93.00;;;;;;5056127;28;20040;-74
2021/06/30 07:55:15;;;;;;;2.17;1.40;;;15.10;93.00;;;;;;5056118;28;20029;-74
2021/06/30 07:57:40;;;;;;;1.73;1.63;;;15.20;93.10;;;;;;5056210;28;20036;-75
2021/06/30 08:00:07;;;;;;;1.58;1.30;;;15.30;92.90;;;;;;5056062;28;20100;-74
2021/06/30 08:02:36;;;;;;;2.13;1.33;;;15.40;92.80;;;;;;5056012;28;20026;-74
2021/06/30 08:05:04;;;;;;;1.55;1.38;;;15.40;92.80;;;;;;5055840;28;20025;-74
2021/06/30 08:07:30;;;;;;;1.25;1.15;;;15.40;92.80;;;;;;5071335;28;20017;-75
2021/06/30 08:09:55;;;;;;;1.23;1.08;;;15.50;92.90;;;;;;5055813;28;20019;-74
2021/06/30 08:12:21;;;;;;;1.27;1.17;;;15.60;92.70;;;;;;5055904;28;20013;-75
2021/06/30 08:14:46;;;;;;;0.80;0.80;;;15.70;92.70;;;;;;5055758;28;20457;-75
2021/06/30 08:17:12;;;;;;;1.20;1.10;;;15.70;92.70;;;;;;5055687;28;20051;-72
2021/06/30 08:19:38;;;;;;;0.93;0.82;;;15.80;92.70;;;;;;5055389;28;20413;-74
2021/06/30 08:22:03;;;;;;;1.15;1.00;;;15.90;92.70;;;;;;5055784;28;20046;-73
2021/06/30 08:24:29;;;;;;;1.33;1.10;;;15.90;92.50;;;;;;5055544;28;20063;-73
2021/06/30 08:26:56;;;;;;;1.48;1.27;;;15.90;92.70;;;;;;5055598;28;20028;-74
2021/06/30 08:29:23;;;;;;;1.77;1.33;;;15.80;92.80;;;;;;5055459;28;20055;-74
2021/06/30 08:31:49;;;;;;;1.15;1.05;;;15.80;92.80;;;;;;5055548;28;20096;-74
2021/06/30 08:34:14;;;;;;;1.63;1.15;;;15.80;92.70;;;;;;5055038;28;20645;-74
2021/06/30 08:36:40;;;;;;;1.20;1.10;;;15.80;92.70;;;;;;5055435;28;20490;-74
2021/06/30 08:39:08;;;;;;;1.15;1.05;;;15.80;92.60;;;;;;5055262;28;20546;-74
2021/06/30 08:41:33;;;;;;;2.30;1.35;;;15.80;92.60;;;;;;5055157;28;20041;-75
2021/06/30 08:43:59;;;;;;;2.65;1.73;;;15.80;92.60;;;;;;5055339;28;20028;-74
2021/06/30 08:46:26;;;;;;;1.77;1.60;;;15.80;92.60;;;;;;5055214;28;20096;-74
2021/06/30 08:48:55;;;;;;;1.85;1.52;;;15.70;92.60;;;;;;5054914;28;20020;-75
2021/06/30 08:51:26;;;;;;;1.23;1.13;;;15.60;92.80;;;;;;5055045;28;20476;-75
2021/06/30 08:53:55;;;;;;;1.90;1.40;;;15.60;92.80;;;;;;5054908;28;20029;-74
2021/06/30 08:56:30;;;;;;;1.20;1.10;;;15.60;92.80;;;;;;5055161;28;20433;-74
2021/06/30 08:58:56;;;;;;;1.65;1.38;;;15.70;92.80;;;;;;5055133;28;20108;-75
2021/06/30 09:01:22;;;;;;;1.00;0.90;;;15.80;92.70;;;;;;5053612;28;20056;-76
2021/06/30 09:03:51;;;;;;;1.17;0.98;;;15.80;92.60;;;;;;5053744;28;20017;-74
2021/06/30 09:06:18;;;;;;;1.20;0.90;;;15.80;92.60;;;;;;5054983;28;20022;-75
2021/06/30 09:08:43;;;;;;;1.40;1.08;;;15.90;92.60;;;;;;5054948;28;20020;-75
2021/06/30 09:11:16;;;;;;;0.70;0.70;;;16.10;92.50;;;;;;5054887;28;20539;-74
2021/06/30 09:13:42;;;;;;;0.90;0.73;;;16.20;92.40;;;;;;5054825;28;20474;-74
2021/06/30 09:16:08;;;;;;;1.20;1.00;;;16.30;92.30;;;;;;5054782;28;20029;-75
2021/06/30 09:18:36;;;;;;;0.80;0.80;;;16.40;92.10;;;;;;5054280;28;20025;-74
2021/06/30 09:21:16;;;;;;;0.73;0.70;;;16.40;92.10;;;;;;5054864;28;20020;-74
2021/06/30 09:24:06;;;;;;;1.27;1.17;;;16.50;92.20;;;;;;5053273;28;20021;-74
2021/06/30 09:26:46;;;;;;;;;;;16.50;92.00;;;;;;5045834;28;20036;-74
2021/06/30 09:29:12;;;;;;;1.25;0.82;;;16.30;92.20;;;;;;5054108;28;19927;-74
2021/06/30 09:31:44;;;;;;;0.47;0.47;;;16.30;92.40;;;;;;5054330;28;20017;-74
2021/06/30 09:34:09;;;;;;;0.70;0.68;;;16.40;92.30;;;;;;5053910;28;20044;-75
2021/06/30 09:36:56;;;;;;;0.80;0.77;;;16.40;92.20;;;;;;5054038;28;20029;-75
2021/06/30 09:39:22;;;;;;;0.65;0.65;;;16.30;92.10;;;;;;5036358;28;20104;-75
2021/06/30 09:41:49;;;;;;;0.88;0.88;;;16.20;92.30;;;;;;5053845;28;20084;-75
2021/06/30 09:44:19;;;;;;;0.80;0.70;;;16.20;92.40;;;;;;5054312;28;20025;-76
2021/06/30 09:46:45;;;;;;;1.08;0.98;;;16.10;92.40;;;;;;5053580;28;20433;-75
2021/06/30 09:49:16;;;;;;;1.27;0.93;;;16.10;92.40;;;;;;5053963;28;20469;-75
2021/06/30 09:51:44;;;;;;;0.80;0.80;;;16.10;92.40;;;;;;5053851;28;20430;-74
2021/06/30 09:54:15;;;;;;;1.27;1.08;;;16.00;92.40;;;;;;5054301;28;20029;-74
2021/06/30 09:56:53;;;;;;;1.83;0.93;;;16.00;92.50;;;;;;5053689;28;20374;-74
2021/06/30 09:59:36;;;;;;;0.77;0.60;;;16.10;92.40;;;;;;5053728;28;20017;-74
2021/06/30 10:02:12;;;;;;;0.75;0.75;;;16.20;92.30;;;;;;5053345;28;20031;-73
2021/06/30 10:04:42;;;;;;;0.80;0.80;;;16.40;92.20;;;;;;5053495;28;20028;-73
2021/06/30 10:07:25;;;;;;;1.00;0.88;;;16.40;92.00;;;;;;5053609;28;20029;-73
2021/06/30 10:09:58;;;;;;;1.50;1.05;;;16.50;92.00;;;;;;5053580;28;20032;-74
2021/06/30 10:12:29;;;;;;;1.42;0.70;;;16.50;92.00;;;;;;5053705;28;20031;-74
2021/06/30 10:14:57;;;;;;;0.85;0.82;;;16.50;91.90;;;;;;5053487;28;20033;-74
2021/06/30 10:17:24;;;;;;;1.50;1.13;;;16.40;91.90;;;;;;5053215;28;20025;-74
2021/06/30 10:19:51;;;;;;;1.23;1.05;;;16.30;91.90;;;;;;5035569;28;20017;-73
2021/06/30 10:22:18;;;;;;;0.80;0.80;;;16.30;92.10;;;;;;5053367;28;20386;-74
2021/06/30 10:24:44;;;;;;;1.08;0.90;;;16.20;92.20;;;;;;5053117;28;20025;-73
2021/06/30 10:27:11;;;;;;;1.13;0.85;;;16.10;92.20;;;;;;5053112;28;20036;-72
2021/06/30 10:29:39;;;;;;;0.80;0.80;;;16.00;92.40;;;;;;5053196;28;20025;-75
2021/06/30 10:32:10;;;;;;;0.95;0.90;;;16.00;92.50;;;;;;5034930;28;20032;-73
2021/06/30 10:34:42;;;;;;;0.75;0.60;;;16.10;92.30;;;;;;5052925;28;20555;-74
2021/06/30 10:37:31;;;;;;;1.08;0.85;;;16.20;92.30;;;;;;5051297;28;20017;-74
2021/06/30 10:40:09;;;;;;;1.33;1.10;;;16.40;92.10;;;;;;5027942;28;20090;-74
2021/06/30 10:42:42;;;;;;;0.95;0.88;;;16.40;92.10;;;;;;5045690;28;20124;-73
2021/06/30 10:45:14;;;;;;;0.80;0.80;;;16.60;91.90;;;;;;5052559;28;20025;-75
2021/06/30 10:47:42;;;;;;;1.08;0.93;;;16.90;91.80;;;;;;5053022;28;20059;-72
2021/06/30 10:50:17;;;;;;;0.85;0.80;;;17.10;91.60;;;;;;5052885;28;20099;-73
2021/06/30 10:52:43;;;;;;;1.00;0.90;;;17.20;91.50;;;;;;5052820;28;20029;-72
2021/06/30 10:55:32;;;;;;;0.70;0.70;;;17.20;91.60;;;;;;5053105;28;20488;-72
2021/06/30 10:58:19;;;;;;;0.50;0.50;;;17.20;91.60;;;;;;5037815;28;20037;-73
2021/06/30 11:00:48;;;;;;;1.42;1.02;;;17.30;91.60;;;;;;5052331;28;20031;-73
2021/06/30 11:03:27;;;;;;;1.38;1.23;;;17.20;91.60;;;;;;5034980;28;20461;-74
2021/06/30 11:05:55;;;;;;;1.63;1.17;;;16.90;91.70;;;;;;5052883;28;20079;-73
2021/06/30 11:08:40;;;;;;;1.30;1.00;;;16.70;92.40;;;;;;5052673;28;20025;-73
2021/06/30 11:11:06;;;;;;;1.00;1.00;;;16.70;92.20;;;;;;5034931;28;20377;-72
2021/06/30 11:13:58;;;;;;;0.55;0.55;;;16.80;92.30;;;;;;5052184;28;20036;-74
2021/06/30 11:16:47;;;;;;;1.55;1.38;;;16.70;92.20;;;;;;5052746;28;20023;-73
2021/06/30 11:19:18;;;;;;;0.80;0.80;;;16.70;92.20;;;;;;5052680;28;20083;-74
2021/06/30 11:21:45;;;;;;;1.38;1.25;;;16.70;92.20;;;;;;5052596;28;20036;-74
2021/06/30 11:24:39;;;;;;;0.98;0.95;;;16.70;92.20;;;;;;5052509;28;20021;-73
2021/06/30 11:27:16;;;;;;;1.80;1.35;;;16.80;92.10;;;;;;5055108;28;20037;-73
2021/06/30 11:29:42;;;;;;;1.73;1.40;;;16.90;91.80;;;;;;5056151;28;20096;-74
2021/06/30 11:32:08;;;;;;;1.67;1.48;;;16.80;91.90;;;;;;5056370;28;20489;-73
2021/06/30 11:34:38;;;;;;;1.90;1.52;;;16.80;91.90;;;;;;5056405;28;20029;-74
2021/06/30 11:37:05;;;;;;;2.30;1.40;;;16.80;91.90;;;;;;5056375;28;20017;-74
2021/06/30 11:39:31;;;;;;;1.92;1.40;;;16.80;91.90;;;;;;5056503;28;20122;-73
2021/06/30 11:41:57;;;;;;;2.17;1.30;;;16.80;91.80;;;;;;5056077;28;20072;-73
2021/06/30 11:44:35;;;;;;;1.40;1.10;;;16.70;91.90;;;;;;5055794;28;20035;-73
2021/06/30 11:47:06;;;;;;;2.47;1.77;;;16.60;91.90;;;;;;5056277;28;20096;-73
2021/06/30 11:49:32;;;;;;;1.85;1.30;;;16.60;91.90;;;;;;5038136;28;20021;-73
2021/06/30 11:52:02;;;;;;;1.45;1.30;;;16.70;91.90;;;;;;5056056;28;20104;-73
2021/06/30 11:54:28;;;;;;;1.92;1.60;;;16.80;91.70;;;;;;5056197;28;20029;-73
2021/06/30 11:56:55;;;;;;;1.50;1.27;;;16.90;91.60;;;;;;5055602;28;20025;-73
2021/06/30 11:59:28;;;;;;;2.13;1.92;;;16.80;91.60;;;;;;5055941;28;20683;-73
2021/06/30 12:01:54;;;;;;;1.83;1.63;;;16.80;91.60;;;;;;5037949;28;20024;-73
2021/06/30 12:04:27;;;;;;;1.88;1.35;;;16.70;91.80;;;;;;5054203;28;20339;-72
2021/06/30 12:07:06;;;;;;;1.95;1.40;;;16.70;91.70;;;;;;5055969;28;20028;-73
2021/06/30 12:09:33;;;;;;;1.30;1.20;;;16.80;91.70;;;;;;5055910;28;20036;-73
2021/06/30 12:12:06;;;;;;;1.25;1.15;;;16.80;91.60;;;;;;5054986;28;20037;-73
2021/06/30 12:14:50;;;;;;;1.95;1.58;;;16.80;91.60;;;;;;5055742;28;20033;-74
2021/06/30 12:17:19;;;;;;;2.08;1.77;;;16.90;91.50;;;;;;5055732;28;20028;-74
2021/06/30 12:19:45;;;;;;;;;;;16.80;91.50;;;;;;5056112;28;20473;-74
2021/06/30 12:22:24;;;;;;;2.45;1.88;;;16.60;91.60;;;;;;5055282;28;19905;-75
2021/06/30 12:25:10;;;;;;;1.33;1.23;;;16.50;91.80;;;;;;5055705;28;20116;-73
2021/06/30 12:27:43;;;;;;;2.47;1.92;;;16.50;91.80;;;;;;5055250;28;20040;-75
2021/06/30 12:30:39;;;;;;;2.30;2.10;;;16.60;91.80;;;;;;5055343;28;20056;-73
2021/06/30 12:33:13;;;;;;;2.22;1.88;;;16.50;91.70;;;;;;5017365;28;20123;-74
2021/06/30 12:35:42;;;;;;;2.03;1.75;;;16.50;91.70;;;;;;5055196;28;20028;-72
2021/06/30 12:38:10;;;;;;;2.00;1.55;;;16.50;91.70;;;;;;5053636;28;20017;-74
2021/06/30 12:40:37;;;;;;;1.65;1.30;;;16.40;91.80;;;;;;5053925;28;20516;-73
2021/06/30 12:43:16;;;;;;;3.08;1.90;;;16.50;92.00;;;;;;5055115;28;20028;-73
2021/06/30 12:45:49;;;;;;;;;;;16.50;91.90;;;;;;5055460;28;20021;-74
2021/06/30 12:48:17;;;;;;;2.42;1.63;;;16.30;92.00;;;;;;5055006;28;19966;-74
2021/06/30 12:50:47;;;;;;;4.07;2.67;;;16.20;92.10;;;;;;5054848;28;20044;-72